Lenham, United Kingdom
Current Conditions -  °F | °C
As of 3:20 PM on Thursday 30 Oct 2014 (Local Time) from EGMD Reporting Station
Clear Clear  
Wind Chill: 64°   Ceiling: Unl
Heat Index: 64°   Visibility: 6mi
Dew Point: 59°   Wind: 10mph
Humidity: 83%   Direction: 200°SSW
Pressure: 30.09"   Gusts: NA
Location:  51.24°N, 0.72°E
Report Text: EGMD 301520Z 20009KT CAVOK 18/15 Q1019
Loading
Personal Weather Stations






























Interactive Weather Map
Tropical Storm Tracking
New forecast layout! Learn more

10-Day Weather Forecast

Advertisements
Track Severe Weather on mobile